sensor_id;sensor_type;location;lat;lon;timestamp;P1;durP1;ratioP1;P2;durP2;ratioP2
28078;SDS011;15388;42.238;24.684;2023-11-19T00:00:21;2.10;;;1.23;;
28078;SDS011;15388;42.238;24.684;2023-11-19T00:02:46;3.13;;;1.38;;
28078;SDS011;15388;42.238;24.684;2023-11-19T00:05:12;3.47;;;2.63;;
28078;SDS011;15388;42.238;24.684;2023-11-19T00:07:39;4.85;;;1.95;;
28078;SDS011;15388;42.238;24.684;2023-11-19T00:10:12;3.72;;;2.38;;
28078;SDS011;15388;42.238;24.684;2023-11-19T00:12:42;5.68;;;1.67;;
28078;SDS011;15388;42.238;24.684;2023-11-19T00:15:09;3.13;;;1.90;;
28078;SDS011;15388;42.238;24.684;2023-11-19T00:17:41;2.17;;;1.75;;
28078;SDS011;15388;42.238;24.684;2023-11-19T00:20:10;2.35;;;1.42;;
28078;SDS011;15388;42.238;24.684;2023-11-19T00:22:36;2.63;;;1.70;;
28078;SDS011;15388;42.238;24.684;2023-11-19T00:25:03;1.83;;;1.58;;
28078;SDS011;15388;42.238;24.684;2023-11-19T00:27:30;2.00;;;1.15;;
28078;SDS011;15388;42.238;24.684;2023-11-19T00:29:56;2.88;;;1.38;;
28078;SDS011;15388;42.238;24.684;2023-11-19T00:32:21;1.98;;;1.20;;
28078;SDS011;15388;42.238;24.684;2023-11-19T00:34:47;1.00;;;0.90;;
28078;SDS011;15388;42.238;24.684;2023-11-19T00:37:13;2.13;;;1.05;;
28078;SDS011;15388;42.238;24.684;2023-11-19T00:39:42;1.67;;;0.98;;
28078;SDS011;15388;42.238;24.684;2023-11-19T00:42:08;2.00;;;1.17;;
28078;SDS011;15388;42.238;24.684;2023-11-19T00:44:35;1.90;;;1.47;;
28078;SDS011;15388;42.238;24.684;2023-11-19T00:47:00;2.50;;;1.85;;
28078;SDS011;15388;42.238;24.684;2023-11-19T00:49:26;1.02;;;0.90;;
28078;SDS011;15388;42.238;24.684;2023-11-19T00:51:51;1.20;;;1.10;;
28078;SDS011;15388;42.238;24.684;2023-11-19T00:54:17;9.00;;;2.88;;
28078;SDS011;15388;42.238;24.684;2023-11-19T00:56:42;2.08;;;1.25;;
28078;SDS011;15388;42.238;24.684;2023-11-19T00:59:08;2.53;;;1.05;;
28078;SDS011;15388;42.238;24.684;2023-11-19T01:01:35;1.83;;;1.40;;
28078;SDS011;15388;42.238;24.684;2023-11-19T01:04:00;4.82;;;1.98;;
28078;SDS011;15388;42.238;24.684;2023-11-19T01:06:29;1.73;;;1.25;;
28078;SDS011;15388;42.238;24.684;2023-11-19T01:08:55;1.10;;;0.90;;
28078;SDS011;15388;42.238;24.684;2023-11-19T01:11:25;2.03;;;1.42;;
28078;SDS011;15388;42.238;24.684;2023-11-19T01:13:52;1.38;;;1.27;;
28078;SDS011;15388;42.238;24.684;2023-11-19T01:16:17;1.83;;;1.23;;
28078;SDS011;15388;42.238;24.684;2023-11-19T01:18:44;1.67;;;1.20;;
28078;SDS011;15388;42.238;24.684;2023-11-19T01:21:11;1.25;;;1.15;;
28078;SDS011;15388;42.238;24.684;2023-11-19T01:23:37;1.83;;;1.52;;
28078;SDS011;15388;42.238;24.684;2023-11-19T01:26:02;1.58;;;1.10;;
28078;SDS011;15388;42.238;24.684;2023-11-19T01:28:31;2.97;;;1.65;;
28078;SDS011;15388;42.238;24.684;2023-11-19T01:30:56;1.08;;;0.90;;
28078;SDS011;15388;42.238;24.684;2023-11-19T01:33:22;2.15;;;1.30;;
28078;SDS011;15388;42.238;24.684;2023-11-19T01:35:47;1.88;;;1.55;;
28078;SDS011;15388;42.238;24.684;2023-11-19T01:38:12;2.08;;;1.45;;
28078;SDS011;15388;42.238;24.684;2023-11-19T01:40:38;1.13;;;1.02;;
28078;SDS011;15388;42.238;24.684;2023-11-19T01:43:03;1.25;;;1.10;;
28078;SDS011;15388;42.238;24.684;2023-11-19T01:45:30;2.15;;;1.33;;
28078;SDS011;15388;42.238;24.684;2023-11-19T01:47:56;1.92;;;1.05;;
28078;SDS011;15388;42.238;24.684;2023-11-19T01:50:23;6.88;;;3.15;;
28078;SDS011;15388;42.238;24.684;2023-11-19T01:52:53;1.23;;;1.13;;
28078;SDS011;15388;42.238;24.684;2023-11-19T01:55:24;1.63;;;1.52;;
28078;SDS011;15388;42.238;24.684;2023-11-19T01:57:53;2.30;;;1.45;;
28078;SDS011;15388;42.238;24.684;2023-11-19T02:00:22;2.38;;;1.73;;
28078;SDS011;15388;42.238;24.684;2023-11-19T02:02:49;1.20;;;0.90;;
28078;SDS011;15388;42.238;24.684;2023-11-19T02:05:17;1.45;;;1.17;;
28078;SDS011;15388;42.238;24.684;2023-11-19T02:07:44;2.38;;;1.52;;
28078;SDS011;15388;42.238;24.684;2023-11-19T02:10:11;3.78;;;1.42;;
28078;SDS011;15388;42.238;24.684;2023-11-19T02:12:38;1.35;;;1.20;;
28078;SDS011;15388;42.238;24.684;2023-11-19T02:15:08;1.83;;;1.33;;
28078;SDS011;15388;42.238;24.684;2023-11-19T02:17:34;1.40;;;1.10;;
28078;SDS011;15388;42.238;24.684;2023-11-19T02:20:03;2.13;;;1.92;;
28078;SDS011;15388;42.238;24.684;2023-11-19T02:22:32;2.35;;;1.15;;
28078;SDS011;15388;42.238;24.684;2023-11-19T02:25:01;3.67;;;1.65;;
28078;SDS011;15388;42.238;24.684;2023-11-19T02:30:21;1.23;;;0.93;;
28078;SDS011;15388;42.238;24.684;2023-11-19T02:32:54;3.40;;;1.13;;
28078;SDS011;15388;42.238;24.684;2023-11-19T02:35:27;3.20;;;1.08;;
28078;SDS011;15388;42.238;24.684;2023-11-19T02:37:54;2.88;;;1.88;;
28078;SDS011;15388;42.238;24.684;2023-11-19T02:40:19;1.95;;;1.50;;
28078;SDS011;15388;42.238;24.684;2023-11-19T02:42:45;4.82;;;2.00;;
28078;SDS011;15388;42.238;24.684;2023-11-19T02:45:11;1.55;;;1.33;;
28078;SDS011;15388;42.238;24.684;2023-11-19T02:47:43;1.55;;;1.45;;
28078;SDS011;15388;42.238;24.684;2023-11-19T02:50:09;2.67;;;1.92;;
28078;SDS011;15388;42.238;24.684;2023-11-19T02:52:44;1.92;;;1.52;;
28078;SDS011;15388;42.238;24.684;2023-11-19T02:55:11;3.17;;;2.28;;
28078;SDS011;15388;42.238;24.684;2023-11-19T02:57:40;7.13;;;2.03;;
28078;SDS011;15388;42.238;24.684;2023-11-19T03:00:22;3.00;;;2.17;;
28078;SDS011;15388;42.238;24.684;2023-11-19T03:03:12;3.58;;;2.22;;
28078;SDS011;15388;42.238;24.684;2023-11-19T03:05:46;3.10;;;2.25;;
28078;SDS011;15388;42.238;24.684;2023-11-19T03:08:12;2.58;;;2.03;;
28078;SDS011;15388;42.238;24.684;2023-11-19T03:10:38;4.22;;;2.20;;
28078;SDS011;15388;42.238;24.684;2023-11-19T03:13:04;2.25;;;1.88;;
28078;SDS011;15388;42.238;24.684;2023-11-19T03:15:29;2.80;;;2.25;;
28078;SDS011;15388;42.238;24.684;2023-11-19T03:17:54;3.22;;;1.77;;
28078;SDS011;15388;42.238;24.684;2023-11-19T03:20:20;2.17;;;1.95;;
28078;SDS011;15388;42.238;24.684;2023-11-19T03:22:46;3.88;;;1.42;;
28078;SDS011;15388;42.238;24.684;2023-11-19T03:25:12;2.25;;;2.05;;
28078;SDS011;15388;42.238;24.684;2023-11-19T03:27:38;2.05;;;1.73;;
28078;SDS011;15388;42.238;24.684;2023-11-19T03:30:04;2.88;;;2.00;;
28078;SDS011;15388;42.238;24.684;2023-11-19T03:32:35;2.22;;;2.00;;
28078;SDS011;15388;42.238;24.684;2023-11-19T03:35:01;2.92;;;2.17;;
28078;SDS011;15388;42.238;24.684;2023-11-19T03:37:29;3.92;;;2.42;;
28078;SDS011;15388;42.238;24.684;2023-11-19T03:39:55;6.05;;;3.30;;
28078;SDS011;15388;42.238;24.684;2023-11-19T03:42:24;3.58;;;2.38;;
28078;SDS011;15388;42.238;24.684;2023-11-19T03:44:53;3.15;;;2.03;;
28078;SDS011;15388;42.238;24.684;2023-11-19T03:47:19;2.20;;;1.60;;
28078;SDS011;15388;42.238;24.684;2023-11-19T03:49:51;2.92;;;2.03;;
28078;SDS011;15388;42.238;24.684;2023-11-19T03:52:17;2.75;;;2.33;;
28078;SDS011;15388;42.238;24.684;2023-11-19T03:54:43;2.15;;;1.90;;
28078;SDS011;15388;42.238;24.684;2023-11-19T03:57:09;5.38;;;2.53;;
28078;SDS011;15388;42.238;24.684;2023-11-19T03:59:37;2.15;;;1.85;;
28078;SDS011;15388;42.238;24.684;2023-11-19T04:02:03;1.77;;;1.65;;
28078;SDS011;15388;42.238;24.684;2023-11-19T04:04:28;2.78;;;2.05;;
28078;SDS011;15388;42.238;24.684;2023-11-19T04:06:57;2.00;;;1.80;;
28078;SDS011;15388;42.238;24.684;2023-11-19T04:09:23;4.05;;;2.60;;
28078;SDS011;15388;42.238;24.684;2023-11-19T04:11:50;3.28;;;2.45;;
28078;SDS011;15388;42.238;24.684;2023-11-19T04:14:16;2.70;;;2.23;;
28078;SDS011;15388;42.238;24.684;2023-11-19T04:16:43;2.63;;;2.33;;
28078;SDS011;15388;42.238;24.684;2023-11-19T04:19:11;2.83;;;2.47;;
28078;SDS011;15388;42.238;24.684;2023-11-19T04:21:37;3.95;;;2.10;;
28078;SDS011;15388;42.238;24.684;2023-11-19T04:24:04;2.88;;;1.90;;
28078;SDS011;15388;42.238;24.684;2023-11-19T04:26:30;1.83;;;1.65;;
28078;SDS011;15388;42.238;24.684;2023-11-19T04:28:56;2.85;;;2.33;;
28078;SDS011;15388;42.238;24.684;2023-11-19T04:31:21;5.35;;;3.38;;
28078;SDS011;15388;42.238;24.684;2023-11-19T04:33:47;5.60;;;2.45;;
28078;SDS011;15388;42.238;24.684;2023-11-19T04:36:13;2.67;;;2.17;;
28078;SDS011;15388;42.238;24.684;2023-11-19T04:38:44;5.22;;;1.50;;
28078;SDS011;15388;42.238;24.684;2023-11-19T04:41:09;2.25;;;2.03;;
28078;SDS011;15388;42.238;24.684;2023-11-19T04:43:34;3.38;;;2.03;;
28078;SDS011;15388;42.238;24.684;2023-11-19T04:46:03;3.28;;;1.92;;
28078;SDS011;15388;42.238;24.684;2023-11-19T04:48:29;3.97;;;2.55;;
28078;SDS011;15388;42.238;24.684;2023-11-19T04:50:54;2.55;;;2.13;;
28078;SDS011;15388;42.238;24.684;2023-11-19T04:53:19;2.13;;;1.88;;
28078;SDS011;15388;42.238;24.684;2023-11-19T04:55:45;2.83;;;1.95;;
28078;SDS011;15388;42.238;24.684;2023-11-19T04:58:12;3.78;;;2.10;;
28078;SDS011;15388;42.238;24.684;2023-11-19T05:00:37;2.28;;;1.95;;
28078;SDS011;15388;42.238;24.684;2023-11-19T05:03:02;2.90;;;2.33;;
28078;SDS011;15388;42.238;24.684;2023-11-19T05:05:28;3.13;;;2.40;;
28078;SDS011;15388;42.238;24.684;2023-11-19T05:07:54;3.58;;;2.55;;
28078;SDS011;15388;42.238;24.684;2023-11-19T05:10:20;4.00;;;2.30;;
28078;SDS011;15388;42.238;24.684;2023-11-19T05:12:45;2.20;;;2.00;;
28078;SDS011;15388;42.238;24.684;2023-11-19T05:15:12;3.17;;;2.65;;
28078;SDS011;15388;42.238;24.684;2023-11-19T05:17:37;3.97;;;2.90;;
28078;SDS011;15388;42.238;24.684;2023-11-19T05:20:07;5.03;;;4.25;;
28078;SDS011;15388;42.238;24.684;2023-11-19T05:22:38;5.53;;;3.03;;
28078;SDS011;15388;42.238;24.684;2023-11-19T05:25:05;3.33;;;2.42;;
28078;SDS011;15388;42.238;24.684;2023-11-19T05:27:31;2.95;;;1.88;;
28078;SDS011;15388;42.238;24.684;2023-11-19T05:29:56;3.30;;;2.70;;
28078;SDS011;15388;42.238;24.684;2023-11-19T05:32:21;4.35;;;3.08;;
28078;SDS011;15388;42.238;24.684;2023-11-19T05:34:48;3.92;;;2.05;;
28078;SDS011;15388;42.238;24.684;2023-11-19T05:37:14;4.22;;;3.38;;
28078;SDS011;15388;42.238;24.684;2023-11-19T05:39:40;2.10;;;1.90;;
28078;SDS011;15388;42.238;24.684;2023-11-19T05:42:06;5.28;;;3.30;;
28078;SDS011;15388;42.238;24.684;2023-11-19T05:44:31;5.77;;;3.83;;
28078;SDS011;15388;42.238;24.684;2023-11-19T05:46:57;5.35;;;3.83;;
28078;SDS011;15388;42.238;24.684;2023-11-19T05:49:22;5.55;;;3.63;;
28078;SDS011;15388;42.238;24.684;2023-11-19T05:51:48;6.18;;;4.18;;
28078;SDS011;15388;42.238;24.684;2023-11-19T05:54:13;3.75;;;2.78;;
28078;SDS011;15388;42.238;24.684;2023-11-19T05:56:39;3.83;;;2.97;;
28078;SDS011;15388;42.238;24.684;2023-11-19T05:59:04;5.10;;;3.00;;
28078;SDS011;15388;42.238;24.684;2023-11-19T06:01:33;2.20;;;2.00;;
28078;SDS011;15388;42.238;24.684;2023-11-19T06:03:59;4.05;;;3.38;;
28078;SDS011;15388;42.238;24.684;2023-11-19T06:06:26;8.00;;;3.50;;
28078;SDS011;15388;42.238;24.684;2023-11-19T06:08:52;5.30;;;3.28;;
28078;SDS011;15388;42.238;24.684;2023-11-19T06:11:17;4.03;;;3.05;;
28078;SDS011;15388;42.238;24.684;2023-11-19T06:13:45;2.60;;;2.40;;
28078;SDS011;15388;42.238;24.684;2023-11-19T06:16:12;4.68;;;3.30;;
28078;SDS011;15388;42.238;24.684;2023-11-19T06:18:38;5.00;;;2.30;;
28078;SDS011;15388;42.238;24.684;2023-11-19T06:21:03;5.55;;;3.78;;
28078;SDS011;15388;42.238;24.684;2023-11-19T06:23:29;3.65;;;2.80;;
28078;SDS011;15388;42.238;24.684;2023-11-19T06:25:54;2.95;;;2.60;;
28078;SDS011;15388;42.238;24.684;2023-11-19T06:28:20;6.00;;;3.25;;
28078;SDS011;15388;42.238;24.684;2023-11-19T06:30:45;3.00;;;2.25;;
28078;SDS011;15388;42.238;24.684;2023-11-19T06:33:13;2.28;;;1.88;;
28078;SDS011;15388;42.238;24.684;2023-11-19T06:35:39;2.97;;;2.25;;
28078;SDS011;15388;42.238;24.684;2023-11-19T06:38:05;3.38;;;2.92;;
28078;SDS011;15388;42.238;24.684;2023-11-19T06:40:34;10.15;;;4.60;;
28078;SDS011;15388;42.238;24.684;2023-11-19T06:43:00;5.50;;;3.00;;
28078;SDS011;15388;42.238;24.684;2023-11-19T06:47:53;3.83;;;2.67;;
28078;SDS011;15388;42.238;24.684;2023-11-19T06:50:18;3.42;;;2.33;;
28078;SDS011;15388;42.238;24.684;2023-11-19T06:52:44;3.55;;;2.75;;
28078;SDS011;15388;42.238;24.684;2023-11-19T06:55:10;7.93;;;2.25;;
28078;SDS011;15388;42.238;24.684;2023-11-19T06:57:35;4.43;;;2.53;;
28078;SDS011;15388;42.238;24.684;2023-11-19T07:00:01;3.10;;;1.75;;
28078;SDS011;15388;42.238;24.684;2023-11-19T07:02:26;4.97;;;3.63;;
28078;SDS011;15388;42.238;24.684;2023-11-19T07:04:53;3.08;;;2.50;;
28078;SDS011;15388;42.238;24.684;2023-11-19T07:07:19;6.45;;;5.07;;
28078;SDS011;15388;42.238;24.684;2023-11-19T07:09:45;4.05;;;3.05;;
28078;SDS011;15388;42.238;24.684;2023-11-19T07:12:10;3.90;;;3.00;;
28078;SDS011;15388;42.238;24.684;2023-11-19T07:14:36;4.30;;;3.10;;
28078;SDS011;15388;42.238;24.684;2023-11-19T07:17:01;6.90;;;3.20;;
28078;SDS011;15388;42.238;24.684;2023-11-19T07:19:27;3.78;;;3.20;;
28078;SDS011;15388;42.238;24.684;2023-11-19T07:21:52;4.72;;;2.58;;
28078;SDS011;15388;42.238;24.684;2023-11-19T07:24:19;3.57;;;2.57;;
28078;SDS011;15388;42.238;24.684;2023-11-19T07:26:46;5.72;;;4.18;;
28078;SDS011;15388;42.238;24.684;2023-11-19T07:29:12;5.80;;;2.53;;
28078;SDS011;15388;42.238;24.684;2023-11-19T07:31:43;12.38;;;6.45;;
28078;SDS011;15388;42.238;24.684;2023-11-19T07:34:09;9.25;;;4.95;;
28078;SDS011;15388;42.238;24.684;2023-11-19T07:36:36;6.28;;;3.47;;
28078;SDS011;15388;42.238;24.684;2023-11-19T07:39:03;20.67;;;9.20;;
28078;SDS011;15388;42.238;24.684;2023-11-19T07:41:30;16.35;;;6.07;;
28078;SDS011;15388;42.238;24.684;2023-11-19T07:43:55;12.27;;;6.03;;
28078;SDS011;15388;42.238;24.684;2023-11-19T07:46:21;3.83;;;2.72;;
28078;SDS011;15388;42.238;24.684;2023-11-19T07:48:46;5.85;;;1.90;;
28078;SDS011;15388;42.238;24.684;2023-11-19T07:51:12;4.63;;;1.92;;
28078;SDS011;15388;42.238;24.684;2023-11-19T07:53:39;3.05;;;2.50;;
28078;SDS011;15388;42.238;24.684;2023-11-19T07:56:05;3.40;;;2.83;;
28078;SDS011;15388;42.238;24.684;2023-11-19T07:58:32;1.75;;;1.65;;
28078;SDS011;15388;42.238;24.684;2023-11-19T08:00:57;2.58;;;2.08;;
28078;SDS011;15388;42.238;24.684;2023-11-19T08:03:22;2.15;;;1.88;;
28078;SDS011;15388;42.238;24.684;2023-11-19T08:05:48;2.50;;;1.92;;
28078;SDS011;15388;42.238;24.684;2023-11-19T08:08:14;3.50;;;2.00;;
28078;SDS011;15388;42.238;24.684;2023-11-19T08:10:40;2.25;;;2.03;;
28078;SDS011;15388;42.238;24.684;2023-11-19T08:13:05;1.77;;;1.55;;
28078;SDS011;15388;42.238;24.684;2023-11-19T08:15:31;2.65;;;1.67;;
28078;SDS011;15388;42.238;24.684;2023-11-19T08:17:57;3.13;;;2.08;;
28078;SDS011;15388;42.238;24.684;2023-11-19T08:20:22;2.88;;;2.17;;
28078;SDS011;15388;42.238;24.684;2023-11-19T08:22:48;3.50;;;2.40;;
28078;SDS011;15388;42.238;24.684;2023-11-19T08:25:14;5.95;;;3.20;;
28078;SDS011;15388;42.238;24.684;2023-11-19T08:27:39;2.83;;;2.28;;
28078;SDS011;15388;42.238;24.684;2023-11-19T08:30:05;3.88;;;2.55;;
28078;SDS011;15388;42.238;24.684;2023-11-19T08:32:31;4.32;;;3.08;;
28078;SDS011;15388;42.238;24.684;2023-11-19T08:34:57;3.47;;;2.95;;
28078;SDS011;15388;42.238;24.684;2023-11-19T08:37:23;2.25;;;1.90;;
28078;SDS011;15388;42.238;24.684;2023-11-19T08:39:50;3.85;;;2.33;;
28078;SDS011;15388;42.238;24.684;2023-11-19T08:42:18;3.33;;;1.98;;
28078;SDS011;15388;42.238;24.684;2023-11-19T08:44:48;2.35;;;2.15;;
28078;SDS011;15388;42.238;24.684;2023-11-19T08:47:15;4.93;;;2.28;;
28078;SDS011;15388;42.238;24.684;2023-11-19T08:52:08;4.25;;;2.75;;
28078;SDS011;15388;42.238;24.684;2023-11-19T08:54:35;6.40;;;3.67;;
28078;SDS011;15388;42.238;24.684;2023-11-19T08:57:07;5.25;;;3.42;;
28078;SDS011;15388;42.238;24.684;2023-11-19T08:59:35;4.20;;;2.72;;
28078;SDS011;15388;42.238;24.684;2023-11-19T09:02:03;2.60;;;2.17;;
28078;SDS011;15388;42.238;24.684;2023-11-19T09:04:29;3.00;;;2.33;;
28078;SDS011;15388;42.238;24.684;2023-11-19T09:06:54;6.43;;;2.50;;
28078;SDS011;15388;42.238;24.684;2023-11-19T09:09:21;2.67;;;2.37;;
28078;SDS011;15388;42.238;24.684;2023-11-19T09:11:46;2.60;;;2.17;;
28078;SDS011;15388;42.238;24.684;2023-11-19T09:14:12;2.55;;;2.30;;
28078;SDS011;15388;42.238;24.684;2023-11-19T09:16:37;2.75;;;2.30;;
28078;SDS011;15388;42.238;24.684;2023-11-19T09:19:04;3.83;;;2.50;;
28078;SDS011;15388;42.238;24.684;2023-11-19T09:21:30;4.75;;;2.75;;
28078;SDS011;15388;42.238;24.684;2023-11-19T09:23:55;2.75;;;2.00;;
28078;SDS011;15388;42.238;24.684;2023-11-19T09:26:21;2.92;;;2.22;;
28078;SDS011;15388;42.238;24.684;2023-11-19T09:28:46;6.22;;;2.85;;
28078;SDS011;15388;42.238;24.684;2023-11-19T09:31:15;3.30;;;2.30;;
28078;SDS011;15388;42.238;24.684;2023-11-19T09:33:41;2.40;;;1.75;;
28078;SDS011;15388;42.238;24.684;2023-11-19T09:36:07;4.03;;;2.75;;
28078;SDS011;15388;42.238;24.684;2023-11-19T09:38:33;4.65;;;2.72;;
28078;SDS011;15388;42.238;24.684;2023-11-19T09:41:03;3.53;;;2.65;;
28078;SDS011;15388;42.238;24.684;2023-11-19T09:43:33;24.20;;;9.18;;
28078;SDS011;15388;42.238;24.684;2023-11-19T09:45:58;8.40;;;4.60;;
28078;SDS011;15388;42.238;24.684;2023-11-19T09:48:34;9.05;;;5.95;;
28078;SDS011;15388;42.238;24.684;2023-11-19T09:51:10;7.93;;;4.60;;
28078;SDS011;15388;42.238;24.684;2023-11-19T09:53:36;3.47;;;2.35;;
28078;SDS011;15388;42.238;24.684;2023-11-19T09:56:02;7.40;;;2.53;;
28078;SDS011;15388;42.238;24.684;2023-11-19T09:58:29;3.30;;;2.70;;
28078;SDS011;15388;42.238;24.684;2023-11-19T10:00:58;2.75;;;1.95;;
28078;SDS011;15388;42.238;24.684;2023-11-19T10:03:24;3.72;;;2.10;;
28078;SDS011;15388;42.238;24.684;2023-11-19T10:08:18;8.15;;;3.72;;
28078;SDS011;15388;42.238;24.684;2023-11-19T10:10:44;7.35;;;4.07;;
28078;SDS011;15388;42.238;24.684;2023-11-19T10:13:09;15.07;;;4.47;;
28078;SDS011;15388;42.238;24.684;2023-11-19T10:15:36;8.38;;;3.70;;
28078;SDS011;15388;42.238;24.684;2023-11-19T10:18:03;5.35;;;2.95;;
28078;SDS011;15388;42.238;24.684;2023-11-19T10:20:37;8.85;;;3.35;;
28078;SDS011;15388;42.238;24.684;2023-11-19T10:23:05;15.98;;;7.32;;
28078;SDS011;15388;42.238;24.684;2023-11-19T10:25:32;16.58;;;6.53;;
28078;SDS011;15388;42.238;24.684;2023-11-19T10:27:59;3.63;;;2.35;;
28078;SDS011;15388;42.238;24.684;2023-11-19T10:30:29;3.70;;;2.27;;
28078;SDS011;15388;42.238;24.684;2023-11-19T10:33:05;3.25;;;2.33;;
28078;SDS011;15388;42.238;24.684;2023-11-19T10:35:32;5.65;;;3.20;;
28078;SDS011;15388;42.238;24.684;2023-11-19T10:37:59;5.80;;;3.47;;
28078;SDS011;15388;42.238;24.684;2023-11-19T10:40:37;4.13;;;2.65;;
28078;SDS011;15388;42.238;24.684;2023-11-19T10:43:03;4.28;;;3.42;;
28078;SDS011;15388;42.238;24.684;2023-11-19T10:45:28;2.58;;;2.17;;
28078;SDS011;15388;42.238;24.684;2023-11-19T10:47:54;3.17;;;2.35;;
28078;SDS011;15388;42.238;24.684;2023-11-19T10:52:48;3.75;;;2.13;;
28078;SDS011;15388;42.238;24.684;2023-11-19T10:55:20;7.95;;;5.35;;
28078;SDS011;15388;42.238;24.684;2023-11-19T10:57:52;5.10;;;3.78;;
28078;SDS011;15388;42.238;24.684;2023-11-19T11:00:21;6.90;;;3.42;;
28078;SDS011;15388;42.238;24.684;2023-11-19T11:02:50;3.92;;;3.42;;
28078;SDS011;15388;42.238;24.684;2023-11-19T11:05:22;5.82;;;4.15;;
28078;SDS011;15388;42.238;24.684;2023-11-19T11:07:47;3.03;;;2.60;;
28078;SDS011;15388;42.238;24.684;2023-11-19T11:10:14;3.72;;;3.17;;
28078;SDS011;15388;42.238;24.684;2023-11-19T11:12:41;3.17;;;2.78;;
28078;SDS011;15388;42.238;24.684;2023-11-19T11:15:08;13.52;;;6.40;;
28078;SDS011;15388;42.238;24.684;2023-11-19T11:17:40;22.92;;;9.85;;
28078;SDS011;15388;42.238;24.684;2023-11-19T11:20:08;4.63;;;3.25;;
28078;SDS011;15388;42.238;24.684;2023-11-19T11:22:44;6.80;;;4.38;;
28078;SDS011;15388;42.238;24.684;2023-11-19T11:25:41;6.20;;;2.95;;
28078;SDS011;15388;42.238;24.684;2023-11-19T11:28:26;6.22;;;3.72;;
28078;SDS011;15388;42.238;24.684;2023-11-19T11:39:35;3.25;;;2.85;;
28078;SDS011;15388;42.238;24.684;2023-11-19T11:50:21;9.27;;;4.40;;
28078;SDS011;15388;42.238;24.684;2023-11-19T11:55:26;6.78;;;3.70;;
28078;SDS011;15388;42.238;24.684;2023-11-19T11:58:02;8.30;;;5.50;;
28078;SDS011;15388;42.238;24.684;2023-11-19T12:02:55;6.45;;;3.15;;
28078;SDS011;15388;42.238;24.684;2023-11-19T12:05:21;4.90;;;3.45;;
28078;SDS011;15388;42.238;24.684;2023-11-19T12:07:57;7.78;;;4.00;;
28078;SDS011;15388;42.238;24.684;2023-11-19T12:10:26;14.35;;;6.15;;
28078;SDS011;15388;42.238;24.684;2023-11-19T12:12:59;6.97;;;4.03;;
28078;SDS011;15388;42.238;24.684;2023-11-19T12:15:26;9.05;;;3.55;;
28078;SDS011;15388;42.238;24.684;2023-11-19T12:17:53;9.18;;;5.25;;
28078;SDS011;15388;42.238;24.684;2023-11-19T12:20:26;7.45;;;4.68;;
28078;SDS011;15388;42.238;24.684;2023-11-19T12:22:52;5.13;;;4.35;;
28078;SDS011;15388;42.238;24.684;2023-11-19T12:25:19;5.95;;;3.78;;
28078;SDS011;15388;42.238;24.684;2023-11-19T12:27:46;4.15;;;3.33;;
28078;SDS011;15388;42.238;24.684;2023-11-19T12:30:16;3.53;;;2.92;;
28078;SDS011;15388;42.238;24.684;2023-11-19T12:32:51;4.43;;;3.55;;
28078;SDS011;15388;42.238;24.684;2023-11-19T12:35:18;4.20;;;3.25;;
28078;SDS011;15388;42.238;24.684;2023-11-19T12:40:14;3.30;;;3.00;;
28078;SDS011;15388;42.238;24.684;2023-11-19T12:42:42;2.85;;;2.65;;
28078;SDS011;15388;42.238;24.684;2023-11-19T12:45:08;3.65;;;2.83;;
28078;SDS011;15388;42.238;24.684;2023-11-19T12:47:35;4.57;;;2.70;;
28078;SDS011;15388;42.238;24.684;2023-11-19T12:50:02;5.20;;;2.63;;
28078;SDS011;15388;42.238;24.684;2023-11-19T12:52:27;2.95;;;2.65;;
28078;SDS011;15388;42.238;24.684;2023-11-19T12:54:53;8.40;;;3.50;;
28078;SDS011;15388;42.238;24.684;2023-11-19T12:57:18;5.43;;;4.13;;
28078;SDS011;15388;42.238;24.684;2023-11-19T12:59:54;2.85;;;2.55;;
28078;SDS011;15388;42.238;24.684;2023-11-19T13:02:21;2.80;;;2.50;;
28078;SDS011;15388;42.238;24.684;2023-11-19T13:04:46;4.90;;;3.50;;
28078;SDS011;15388;42.238;24.684;2023-11-19T13:07:12;4.70;;;3.17;;
28078;SDS011;15388;42.238;24.684;2023-11-19T13:09:37;4.18;;;2.80;;
28078;SDS011;15388;42.238;24.684;2023-11-19T13:12:12;4.25;;;3.80;;
28078;SDS011;15388;42.238;24.684;2023-11-19T13:14:40;6.07;;;3.78;;
28078;SDS011;15388;42.238;24.684;2023-11-19T13:17:07;3.63;;;3.15;;
28078;SDS011;15388;42.238;24.684;2023-11-19T13:19:33;4.18;;;3.13;;
28078;SDS011;15388;42.238;24.684;2023-11-19T13:21:59;4.60;;;3.17;;
28078;SDS011;15388;42.238;24.684;2023-11-19T13:24:25;8.05;;;3.65;;
28078;SDS011;15388;42.238;24.684;2023-11-19T13:26:50;4.82;;;3.55;;
28078;SDS011;15388;42.238;24.684;2023-11-19T13:29:15;3.55;;;2.70;;
28078;SDS011;15388;42.238;24.684;2023-11-19T13:31:41;3.40;;;3.08;;
28078;SDS011;15388;42.238;24.684;2023-11-19T13:34:06;4.57;;;2.90;;
28078;SDS011;15388;42.238;24.684;2023-11-19T13:36:33;4.25;;;3.08;;
28078;SDS011;15388;42.238;24.684;2023-11-19T13:38:59;4.25;;;3.13;;
28078;SDS011;15388;42.238;24.684;2023-11-19T13:41:25;7.47;;;5.00;;
28078;SDS011;15388;42.238;24.684;2023-11-19T13:43:51;5.32;;;3.88;;
28078;SDS011;15388;42.238;24.684;2023-11-19T13:46:16;3.95;;;2.90;;
28078;SDS011;15388;42.238;24.684;2023-11-19T13:48:42;11.73;;;4.45;;
28078;SDS011;15388;42.238;24.684;2023-11-19T13:51:07;10.57;;;6.25;;
28078;SDS011;15388;42.238;24.684;2023-11-19T13:56:00;9.48;;;5.20;;
28078;SDS011;15388;42.238;24.684;2023-11-19T13:58:25;9.63;;;5.28;;
28078;SDS011;15388;42.238;24.684;2023-11-19T14:00:51;8.65;;;4.55;;
28078;SDS011;15388;42.238;24.684;2023-11-19T14:03:17;10.70;;;5.10;;
28078;SDS011;15388;42.238;24.684;2023-11-19T14:05:43;7.35;;;4.90;;
28078;SDS011;15388;42.238;24.684;2023-11-19T14:08:08;10.50;;;5.50;;
28078;SDS011;15388;42.238;24.684;2023-11-19T14:10:36;9.10;;;6.45;;
28078;SDS011;15388;42.238;24.684;2023-11-19T14:13:05;15.35;;;7.60;;
28078;SDS011;15388;42.238;24.684;2023-11-19T14:15:36;11.57;;;6.07;;
28078;SDS011;15388;42.238;24.684;2023-11-19T14:18:02;14.65;;;8.55;;
28078;SDS011;15388;42.238;24.684;2023-11-19T14:20:29;12.18;;;5.72;;
28078;SDS011;15388;42.238;24.684;2023-11-19T14:22:54;11.15;;;7.72;;
28078;SDS011;15388;42.238;24.684;2023-11-19T14:25:20;10.52;;;6.32;;
28078;SDS011;15388;42.238;24.684;2023-11-19T14:27:46;7.78;;;5.25;;
28078;SDS011;15388;42.238;24.684;2023-11-19T14:30:12;7.07;;;5.50;;
28078;SDS011;15388;42.238;24.684;2023-11-19T14:32:40;7.97;;;4.05;;
28078;SDS011;15388;42.238;24.684;2023-11-19T14:35:07;24.80;;;6.60;;
28078;SDS011;15388;42.238;24.684;2023-11-19T14:37:33;15.05;;;5.00;;
28078;SDS011;15388;42.238;24.684;2023-11-19T14:39:59;5.00;;;3.55;;
28078;SDS011;15388;42.238;24.684;2023-11-19T14:42:25;5.15;;;4.28;;
28078;SDS011;15388;42.238;24.684;2023-11-19T14:44:52;4.57;;;3.97;;
28078;SDS011;15388;42.238;24.684;2023-11-19T14:47:22;7.18;;;4.20;;
28078;SDS011;15388;42.238;24.684;2023-11-19T14:49:47;16.85;;;8.38;;
28078;SDS011;15388;42.238;24.684;2023-11-19T14:52:13;5.95;;;4.43;;
28078;SDS011;15388;42.238;24.684;2023-11-19T14:54:39;13.35;;;6.95;;
28078;SDS011;15388;42.238;24.684;2023-11-19T14:57:05;26.83;;;11.45;;
28078;SDS011;15388;42.238;24.684;2023-11-19T14:59:31;6.35;;;4.85;;
28078;SDS011;15388;42.238;24.684;2023-11-19T15:01:58;7.43;;;4.85;;
28078;SDS011;15388;42.238;24.684;2023-11-19T15:04:24;4.57;;;2.80;;
28078;SDS011;15388;42.238;24.684;2023-11-19T15:06:50;6.88;;;3.90;;
28078;SDS011;15388;42.238;24.684;2023-11-19T15:09:16;12.38;;;6.43;;
28078;SDS011;15388;42.238;24.684;2023-11-19T15:11:45;5.97;;;3.17;;